createdAt,value
2022-08-31T00:02:42.873Z,18.30
2022-08-31T00:05:10.642Z,18.20
2022-08-31T00:07:38.021Z,18.20
2022-08-31T00:10:14.774Z,18.10
2022-08-31T00:12:47.269Z,18.10
2022-08-31T00:15:17.831Z,18.10
2022-08-31T00:17:45.306Z,18.10
2022-08-31T00:20:32.621Z,18.20
2022-08-31T00:23:01.701Z,18.10
2022-08-31T00:25:28.439Z,18.10
2022-08-31T00:27:55.816Z,18.10
2022-08-31T00:30:23.504Z,18.20
2022-08-31T00:32:50.324Z,18.10
2022-08-31T00:35:17.357Z,18.00
2022-08-31T00:37:44.192Z,18.10
2022-08-31T00:40:12.176Z,18.20
2022-08-31T00:42:38.929Z,18.10
2022-08-31T00:45:06.867Z,18.10
2022-08-31T00:47:33.673Z,18.00
2022-08-31T00:50:02.175Z,17.90
2022-08-31T00:52:37.714Z,17.90
2022-08-31T00:55:17.005Z,17.90
2022-08-31T00:57:47.969Z,18.00
2022-08-31T01:00:19.822Z,18.00
2022-08-31T01:02:47.322Z,18.10
2022-08-31T01:05:14.827Z,18.10
2022-08-31T01:07:42.174Z,18.20
2022-08-31T01:10:10.221Z,18.20
2022-08-31T01:12:37.353Z,18.20
2022-08-31T01:15:07.277Z,18.10
2022-08-31T01:17:35.399Z,18.00
2022-08-31T01:20:20.707Z,17.90
2022-08-31T01:23:05.283Z,17.80
2022-08-31T01:25:33.773Z,17.80
2022-08-31T01:28:04.501Z,17.90
2022-08-31T01:30:31.651Z,17.90
2022-08-31T01:32:58.456Z,17.90
2022-08-31T01:35:26.085Z,18.00
2022-08-31T01:37:53.809Z,18.00
2022-08-31T01:40:20.735Z,18.00
2022-08-31T01:42:47.551Z,18.10
2022-08-31T01:45:14.275Z,18.10
2022-08-31T01:47:41.525Z,18.00
2022-08-31T01:50:09.413Z,18.00
2022-08-31T01:52:39.087Z,17.90
2022-08-31T01:55:07.384Z,18.00
2022-08-31T01:57:34.757Z,17.90
2022-08-31T02:00:08.789Z,17.90
2022-08-31T02:02:35.750Z,17.90
2022-08-31T02:05:02.524Z,17.90
2022-08-31T02:07:29.223Z,17.90
2022-08-31T02:09:55.926Z,17.90
2022-08-31T02:12:22.616Z,17.80
2022-08-31T02:14:49.309Z,17.90
2022-08-31T02:17:16.325Z,17.90
2022-08-31T02:19:43.044Z,17.90
2022-08-31T02:22:09.794Z,17.90
2022-08-31T02:24:36.595Z,17.90
2022-08-31T02:27:03.510Z,17.80
2022-08-31T02:29:30.290Z,17.80
2022-08-31T02:31:58.548Z,17.70
2022-08-31T02:34:25.451Z,17.80
2022-08-31T02:36:52.136Z,17.80
2022-08-31T02:39:18.801Z,17.80
2022-08-31T02:41:45.662Z,17.80
2022-08-31T02:44:12.574Z,17.90
2022-08-31T02:46:39.353Z,17.80
2022-08-31T02:49:06.127Z,17.80
2022-08-31T02:51:32.773Z,17.80
2022-08-31T02:53:59.646Z,17.80
2022-08-31T02:56:26.369Z,17.80
2022-08-31T02:58:55.065Z,17.70
2022-08-31T03:01:23.873Z,17.70
2022-08-31T03:03:51.101Z,17.80
2022-08-31T03:06:19.399Z,17.80
2022-08-31T03:08:47.514Z,17.80
2022-08-31T03:11:15.075Z,17.70
2022-08-31T03:13:42.947Z,17.70
2022-08-31T03:16:12.245Z,17.70
2022-08-31T03:18:38.966Z,17.70
2022-08-31T03:21:05.798Z,17.70
2022-08-31T03:23:32.480Z,17.70
2022-08-31T03:25:59.991Z,17.70
2022-08-31T03:28:26.698Z,17.70
2022-08-31T03:30:53.444Z,17.70
2022-08-31T03:33:20.356Z,17.70
2022-08-31T03:35:47.139Z,17.70
2022-08-31T03:38:15.903Z,17.70
2022-08-31T03:40:44.290Z,17.70
2022-08-31T03:43:11.890Z,17.70
2022-08-31T03:45:40.249Z,17.70
2022-08-31T03:48:11.931Z,17.70
2022-08-31T03:50:40.745Z,17.70
2022-08-31T03:53:08.595Z,17.70
2022-08-31T03:55:39.068Z,17.70
2022-08-31T03:58:07.129Z,17.60
2022-08-31T04:00:35.395Z,17.60
2022-08-31T04:03:02.316Z,17.50
2022-08-31T04:05:30.749Z,17.50
2022-08-31T04:07:57.700Z,17.50
2022-08-31T04:10:24.586Z,17.50
2022-08-31T04:12:51.888Z,17.40
2022-08-31T04:15:19.022Z,17.30
2022-08-31T04:17:46.396Z,17.30
2022-08-31T04:20:13.473Z,17.30
2022-08-31T04:22:40.140Z,17.30
2022-08-31T04:25:07.398Z,17.30
2022-08-31T04:27:34.051Z,17.30
2022-08-31T04:30:02.000Z,17.30
2022-08-31T04:32:29.733Z,17.30
2022-08-31T04:34:56.773Z,17.30
2022-08-31T04:37:23.587Z,17.30
2022-08-31T04:39:52.214Z,17.30
2022-08-31T04:42:19.514Z,17.30
2022-08-31T04:44:46.369Z,17.40
2022-08-31T04:47:13.045Z,17.40
2022-08-31T04:49:40.594Z,17.40
2022-08-31T04:52:08.256Z,17.30
2022-08-31T04:54:35.247Z,17.40
2022-08-31T04:57:02.176Z,17.40
2022-08-31T04:59:28.901Z,17.40
2022-08-31T05:01:55.818Z,17.40
2022-08-31T05:04:26.083Z,17.40
2022-08-31T05:06:52.887Z,17.50
2022-08-31T05:09:22.735Z,17.60
2022-08-31T05:11:51.700Z,17.60
2022-08-31T05:14:18.777Z,17.60
2022-08-31T05:16:46.049Z,17.60
2022-08-31T05:19:13.194Z,17.70
2022-08-31T05:21:42.054Z,17.70
2022-08-31T05:24:12.330Z,17.70
2022-08-31T05:26:44.499Z,17.80
2022-08-31T05:29:14.418Z,17.80
2022-08-31T05:31:43.351Z,17.80
2022-08-31T05:34:12.593Z,17.90
2022-08-31T05:36:40.490Z,18.00
2022-08-31T05:39:11.847Z,18.00
2022-08-31T05:41:43.935Z,18.00
2022-08-31T05:44:11.631Z,17.90
2022-08-31T05:46:38.952Z,18.00
2022-08-31T05:49:07.208Z,18.00
2022-08-31T05:51:38.355Z,18.00
2022-08-31T05:54:06.369Z,17.90
2022-08-31T05:56:34.524Z,17.90
2022-08-31T05:59:01.254Z,17.90
2022-08-31T06:01:30.782Z,17.90
2022-08-31T06:03:58.590Z,18.00
2022-08-31T06:06:26.513Z,18.00
2022-08-31T06:08:54.016Z,18.10
2022-08-31T06:11:24.727Z,18.00
2022-08-31T06:13:53.520Z,18.00
2022-08-31T06:16:21.360Z,18.00
2022-08-31T06:18:51.676Z,18.00
2022-08-31T06:21:21.537Z,18.10
2022-08-31T06:23:50.709Z,18.20
2022-08-31T06:26:19.823Z,18.30
2022-08-31T06:28:49.063Z,18.30
2022-08-31T06:31:23.738Z,18.40
2022-08-31T06:33:51.940Z,18.50
2022-08-31T06:36:21.129Z,18.50
2022-08-31T06:38:48.035Z,18.50
2022-08-31T06:41:27.147Z,18.50
2022-08-31T06:43:55.132Z,18.60
2022-08-31T06:46:23.330Z,18.70
2022-08-31T06:48:53.137Z,18.70
2022-08-31T06:51:19.819Z,18.70
2022-08-31T06:53:46.785Z,18.60
2022-08-31T06:56:22.707Z,18.60
2022-08-31T06:58:53.686Z,18.70
2022-08-31T07:01:35.161Z,18.80
2022-08-31T07:04:05.461Z,18.80
2022-08-31T07:06:36.334Z,18.70
2022-08-31T07:09:06.386Z,18.60
2022-08-31T07:11:45.006Z,18.70
2022-08-31T07:14:14.701Z,18.70
2022-08-31T07:16:43.044Z,18.70
2022-08-31T07:19:11.667Z,18.80
2022-08-31T07:21:43.148Z,18.80
2022-08-31T07:24:11.924Z,18.70
2022-08-31T07:26:47.151Z,18.80
2022-08-31T07:29:16.164Z,18.90
2022-08-31T07:31:46.550Z,18.90
2022-08-31T07:34:28.767Z,18.90
2022-08-31T07:37:16.921Z,19.00
2022-08-31T07:40:07.075Z,19.00
2022-08-31T07:42:40.575Z,19.00
2022-08-31T07:45:12.781Z,19.10
2022-08-31T07:47:45.272Z,19.10
2022-08-31T07:50:13.164Z,19.00
2022-08-31T07:52:48.436Z,19.00
2022-08-31T07:55:17.758Z,19.00
2022-08-31T07:57:44.889Z,19.00
2022-08-31T08:00:15.293Z,19.10
2022-08-31T08:02:46.245Z,19.10
2022-08-31T08:05:22.800Z,19.00
2022-08-31T08:08:08.410Z,19.00
2022-08-31T08:10:43.537Z,19.10
2022-08-31T08:13:12.507Z,19.20
2022-08-31T08:15:40.652Z,19.20
2022-08-31T08:18:07.670Z,19.10
2022-08-31T08:20:38.056Z,19.20
2022-08-31T08:23:18.503Z,19.20
2022-08-31T08:25:55.886Z,19.30
2022-08-31T08:28:43.118Z,19.40
2022-08-31T08:31:16.651Z,19.40
2022-08-31T08:33:44.396Z,19.50
2022-08-31T08:36:11.700Z,19.70
2022-08-31T08:38:43.584Z,19.70
2022-08-31T08:41:25.139Z,19.70
2022-08-31T08:43:58.644Z,19.80
2022-08-31T08:47:38.618Z,20.00
2022-08-31T08:49:53.981Z,19.80
2022-08-31T08:52:30.610Z,19.70
2022-08-31T08:55:03.686Z,20.00
2022-08-31T08:57:34.511Z,20.20
2022-08-31T09:00:24.890Z,20.50
2022-08-31T09:03:11.472Z,20.50
2022-08-31T09:06:07.087Z,20.60
2022-08-31T09:08:56.187Z,20.30
2022-08-31T09:11:35.587Z,20.20
2022-08-31T09:14:38.719Z,20.00
2022-08-31T09:17:33.625Z,20.10
2022-08-31T09:20:01.526Z,20.10
2022-08-31T09:22:33.691Z,20.20
2022-08-31T09:25:00.507Z,20.40
2022-08-31T09:27:46.830Z,20.40
2022-08-31T09:30:33.130Z,20.50
2022-08-31T09:33:00.286Z,20.80
2022-08-31T09:35:41.240Z,21.00
2022-08-31T09:38:25.426Z,21.10
2022-08-31T09:40:53.130Z,21.20
2022-08-31T09:43:37.510Z,21.10
2022-08-31T09:46:31.597Z,21.00
2022-08-31T09:49:02.996Z,20.80
2022-08-31T09:51:33.792Z,20.70
2022-08-31T09:54:34.093Z,20.50
2022-08-31T09:57:03.073Z,20.50
2022-08-31T09:59:48.299Z,20.40
2022-08-31T10:02:22.129Z,20.50
2022-08-31T10:05:26.817Z,20.50
2022-08-31T10:08:04.278Z,20.50
2022-08-31T10:10:35.785Z,20.40
2022-08-31T10:13:14.804Z,20.50
2022-08-31T10:15:52.927Z,20.40
2022-08-31T10:18:26.247Z,20.40
2022-08-31T10:20:59.592Z,20.30
2022-08-31T10:23:54.549Z,20.20
2022-08-31T10:26:31.589Z,20.10
2022-08-31T10:29:02.015Z,19.90
2022-08-31T10:31:36.885Z,19.80
2022-08-31T10:34:31.094Z,19.80
2022-08-31T10:37:12.549Z,19.70
2022-08-31T10:39:47.806Z,19.50
2022-08-31T10:42:30.702Z,19.40
2022-08-31T10:45:09.197Z,19.30
2022-08-31T10:47:41.516Z,19.10
2022-08-31T10:50:10.951Z,18.80
2022-08-31T10:53:15.447Z,18.20
2022-08-31T10:55:46.535Z,18.00
2022-08-31T10:58:46.179Z,17.90
2022-08-31T11:01:48.508Z,17.80
2022-08-31T11:04:25.932Z,17.80
2022-08-31T11:07:08.021Z,17.70
2022-08-31T11:09:49.669Z,17.60
2022-08-31T11:12:21.643Z,17.50
2022-08-31T11:14:48.453Z,17.30
2022-08-31T11:17:41.267Z,17.20
2022-08-31T11:20:43.150Z,17.20
2022-08-31T11:23:32.271Z,17.10
2022-08-31T11:26:31.904Z,17.20
2022-08-31T11:29:28.859Z,17.20
2022-08-31T11:32:03.552Z,17.10
2022-08-31T11:34:42.471Z,17.10
2022-08-31T11:37:09.774Z,17.10
2022-08-31T11:39:40.224Z,17.10
2022-08-31T11:42:18.931Z,17.10
2022-08-31T11:44:59.887Z,17.20
2022-08-31T11:47:29.984Z,17.30
2022-08-31T11:50:02.342Z,17.30
2022-08-31T11:52:45.174Z,17.20
2022-08-31T11:55:51.927Z,17.10
2022-08-31T11:58:25.968Z,17.10
2022-08-31T12:01:09.465Z,17.00
2022-08-31T12:03:44.127Z,17.00
2022-08-31T12:06:35.487Z,17.00
2022-08-31T12:09:02.110Z,17.00
2022-08-31T12:11:47.616Z,17.00
2022-08-31T12:14:14.500Z,16.90
2022-08-31T12:17:02.950Z,16.90
2022-08-31T12:20:02.127Z,16.90
2022-08-31T12:23:30.436Z,16.90
2022-08-31T12:26:34.954Z,17.10
2022-08-31T12:29:16.648Z,17.10
2022-08-31T12:32:00.031Z,17.20
2022-08-31T12:34:28.147Z,17.30
2022-08-31T12:36:54.863Z,17.30
2022-08-31T12:39:28.690Z,17.30
2022-08-31T12:42:03.621Z,17.40
2022-08-31T12:44:49.987Z,17.30
2022-08-31T12:47:24.267Z,17.30
2022-08-31T12:50:17.820Z,17.30
2022-08-31T12:53:22.163Z,17.30
2022-08-31T12:56:01.131Z,17.40
2022-08-31T12:59:09.641Z,17.50
2022-08-31T13:01:42.235Z,17.60
2022-08-31T13:04:10.672Z,17.70
2022-08-31T13:06:40.746Z,17.70
2022-08-31T13:09:07.821Z,17.70
2022-08-31T13:11:41.781Z,17.80
2022-08-31T13:14:24.577Z,17.90
2022-08-31T13:17:03.946Z,17.90
2022-08-31T13:19:34.195Z,18.00
2022-08-31T13:22:07.924Z,18.10
2022-08-31T13:24:41.061Z,18.20
2022-08-31T13:27:17.777Z,18.20
2022-08-31T13:29:45.963Z,18.20
2022-08-31T13:32:23.491Z,18.30
2022-08-31T13:34:50.204Z,18.20
2022-08-31T13:37:28.386Z,18.20
2022-08-31T13:39:55.979Z,18.10
2022-08-31T13:42:41.858Z,18.10
2022-08-31T13:45:39.220Z,18.00
2022-08-31T13:48:18.851Z,18.00
2022-08-31T13:50:53.177Z,17.90
2022-08-31T13:53:42.249Z,17.90
2022-08-31T13:56:46.718Z,17.90
2022-08-31T13:59:24.167Z,18.00
2022-08-31T14:01:52.184Z,18.10
2022-08-31T14:04:50.376Z,18.10
2022-08-31T14:07:25.481Z,18.20
2022-08-31T14:10:01.919Z,18.10
2022-08-31T14:12:36.215Z,18.10
2022-08-31T14:15:17.510Z,18.10
2022-08-31T14:20:49.638Z,18.00
2022-08-31T14:23:29.817Z,18.00
2022-08-31T14:26:02.431Z,18.00
2022-08-31T14:28:43.112Z,17.90
2022-08-31T14:31:24.237Z,17.90
2022-08-31T14:34:03.743Z,17.90
2022-08-31T14:36:35.442Z,17.80
2022-08-31T14:39:02.139Z,17.70
2022-08-31T14:41:32.686Z,17.70
2022-08-31T14:44:09.231Z,17.70
2022-08-31T14:46:41.873Z,17.70
2022-08-31T14:49:10.727Z,17.60
2022-08-31T14:51:39.069Z,17.50
2022-08-31T14:54:08.929Z,17.60
2022-08-31T14:56:46.717Z,17.50
2022-08-31T14:59:16.173Z,17.60
2022-08-31T15:01:44.852Z,17.60
2022-08-31T15:04:17.829Z,17.60
2022-08-31T15:06:50.037Z,17.50
2022-08-31T15:09:16.789Z,17.50
2022-08-31T15:11:44.193Z,17.50
2022-08-31T15:14:14.040Z,17.50
2022-08-31T15:16:43.620Z,17.40
2022-08-31T15:19:14.629Z,17.40
2022-08-31T15:21:52.185Z,17.40
2022-08-31T15:24:24.591Z,17.40
2022-08-31T15:26:54.128Z,17.40
2022-08-31T15:29:24.753Z,17.40
2022-08-31T15:31:54.897Z,17.30
2022-08-31T15:34:26.262Z,17.20
2022-08-31T15:37:02.056Z,17.20
2022-08-31T15:39:48.772Z,17.10
2022-08-31T15:42:20.719Z,17.20
2022-08-31T15:44:55.920Z,17.30
2022-08-31T15:47:48.071Z,17.30
2022-08-31T15:50:19.349Z,17.30
2022-08-31T15:52:51.744Z,17.20
2022-08-31T15:55:23.590Z,17.30
2022-08-31T15:57:54.362Z,17.20
2022-08-31T16:00:26.505Z,17.20
2022-08-31T16:02:57.303Z,17.20
2022-08-31T16:05:30.535Z,17.30
2022-08-31T16:07:58.010Z,17.30
2022-08-31T16:10:27.710Z,17.20
2022-08-31T16:12:54.463Z,17.20
2022-08-31T16:15:24.658Z,17.20
2022-08-31T16:17:51.960Z,17.20
2022-08-31T16:20:18.818Z,17.20
2022-08-31T16:22:45.570Z,17.20
2022-08-31T16:25:14.349Z,17.20
2022-08-31T16:27:43.413Z,17.20
2022-08-31T16:30:12.642Z,17.20
2022-08-31T16:32:39.619Z,17.10
2022-08-31T16:35:06.896Z,17.10
2022-08-31T16:37:35.253Z,17.00
2022-08-31T16:40:02.224Z,17.00
2022-08-31T16:42:29.086Z,17.00
2022-08-31T16:45:01.288Z,17.00
2022-08-31T16:47:29.534Z,17.00
2022-08-31T16:49:56.852Z,17.00
2022-08-31T16:52:26.748Z,17.00
2022-08-31T16:54:56.944Z,17.00
2022-08-31T16:57:27.185Z,17.00
2022-08-31T16:59:58.815Z,17.00
2022-08-31T17:02:26.364Z,17.00
2022-08-31T17:04:54.309Z,17.00
2022-08-31T17:07:24.197Z,17.10
2022-08-31T17:09:56.073Z,17.00
2022-08-31T17:12:26.194Z,16.90
2022-08-31T17:14:53.524Z,16.90
2022-08-31T17:17:23.039Z,17.00
2022-08-31T17:19:52.121Z,17.00
2022-08-31T17:22:25.621Z,16.90
2022-08-31T17:24:57.695Z,16.90
2022-08-31T17:27:26.110Z,16.90
2022-08-31T17:29:56.322Z,16.90
2022-08-31T17:32:27.638Z,16.90
2022-08-31T17:34:55.370Z,16.90
2022-08-31T17:37:32.735Z,16.80
2022-08-31T17:40:00.448Z,16.80
2022-08-31T17:42:28.641Z,16.80
2022-08-31T17:44:56.732Z,16.80
2022-08-31T17:47:24.918Z,16.70
2022-08-31T17:49:52.670Z,16.70
2022-08-31T17:52:21.821Z,16.60
2022-08-31T17:54:51.159Z,16.60
2022-08-31T17:57:22.324Z,16.60
2022-08-31T17:59:49.333Z,16.50
2022-08-31T18:02:32.578Z,16.50
2022-08-31T18:05:00.494Z,16.40
2022-08-31T18:07:27.946Z,16.40
2022-08-31T18:09:54.732Z,16.40
2022-08-31T18:12:22.828Z,16.40
2022-08-31T18:14:50.090Z,16.40
2022-08-31T18:17:17.263Z,16.40
2022-08-31T18:19:45.194Z,16.50
2022-08-31T18:22:14.455Z,16.50
2022-08-31T18:24:42.609Z,16.50
2022-08-31T18:27:11.112Z,16.50
2022-08-31T18:29:38.989Z,16.50
2022-08-31T18:32:07.633Z,16.50
2022-08-31T18:34:37.184Z,16.50
2022-08-31T18:37:04.950Z,16.40
2022-08-31T18:39:52.710Z,16.40
2022-08-31T18:42:40.005Z,16.30
2022-08-31T18:45:19.145Z,16.40
2022-08-31T18:48:23.807Z,16.40
2022-08-31T18:50:44.419Z,16.40
2022-08-31T18:53:15.505Z,16.40
2022-08-31T18:55:43.878Z,16.40
2022-08-31T18:58:10.942Z,16.30
2022-08-31T19:00:40.386Z,16.30
2022-08-31T19:03:07.988Z,16.30
2022-08-31T19:05:39.176Z,16.30
2022-08-31T19:08:06.233Z,16.20
2022-08-31T19:10:35.002Z,16.20
2022-08-31T19:13:05.405Z,16.20
2022-08-31T19:15:38.760Z,16.10
2022-08-31T19:18:06.064Z,16.20
2022-08-31T19:20:35.290Z,16.20
2022-08-31T19:23:02.325Z,16.10
2022-08-31T19:25:29.555Z,16.00
2022-08-31T19:27:56.666Z,16.00
2022-08-31T19:30:28.121Z,16.00
2022-08-31T19:32:56.884Z,16.00
2022-08-31T19:35:27.318Z,16.10
2022-08-31T19:37:56.884Z,16.10
2022-08-31T19:40:43.328Z,16.10
2022-08-31T19:46:16.019Z,15.90
2022-08-31T19:48:44.681Z,15.80
2022-08-31T19:51:14.363Z,15.80
2022-08-31T19:53:44.499Z,15.90
2022-08-31T19:56:17.700Z,16.00
2022-08-31T19:58:48.882Z,16.00
2022-08-31T20:01:18.260Z,16.00
2022-08-31T20:03:48.013Z,16.00
2022-08-31T20:06:19.481Z,15.90
2022-08-31T20:08:48.136Z,15.90
2022-08-31T20:11:21.456Z,15.80
2022-08-31T20:13:49.495Z,15.70
2022-08-31T20:16:17.121Z,15.70
2022-08-31T20:18:46.466Z,15.70
2022-08-31T20:21:17.418Z,15.70
2022-08-31T20:23:45.789Z,15.80
2022-08-31T20:26:12.649Z,15.80
2022-08-31T20:28:39.634Z,15.70
2022-08-31T20:31:09.375Z,15.70
2022-08-31T20:33:37.229Z,15.60
2022-08-31T20:36:23.341Z,15.60
2022-08-31T20:38:57.161Z,15.60
2022-08-31T20:41:26.080Z,15.60
2022-08-31T20:43:52.866Z,15.60
2022-08-31T20:46:38.634Z,15.70
2022-08-31T20:49:23.798Z,15.70
2022-08-31T20:51:52.136Z,15.70
2022-08-31T20:54:18.829Z,15.60
2022-08-31T20:56:46.234Z,15.60
2022-08-31T20:59:13.291Z,15.60
2022-08-31T21:01:41.010Z,15.60
2022-08-31T21:04:08.370Z,15.60
2022-08-31T21:06:37.035Z,15.60
2022-08-31T21:09:03.937Z,15.60
2022-08-31T21:11:30.690Z,15.60
2022-08-31T21:13:57.535Z,15.70
2022-08-31T21:16:26.050Z,15.60
2022-08-31T21:18:52.797Z,15.60
2022-08-31T21:21:19.466Z,15.60
2022-08-31T21:23:47.948Z,15.60
2022-08-31T21:26:21.436Z,15.60
2022-08-31T21:28:53.228Z,15.60
2022-08-31T21:31:28.535Z,15.70
2022-08-31T21:34:01.122Z,15.70
2022-08-31T21:36:29.769Z,15.70
2022-08-31T21:38:59.628Z,15.70
2022-08-31T21:41:28.707Z,15.70
2022-08-31T21:43:56.878Z,15.70
2022-08-31T21:46:26.146Z,15.70
2022-08-31T21:48:55.450Z,15.70
2022-08-31T21:51:23.884Z,15.70
2022-08-31T21:53:53.634Z,15.60
2022-08-31T21:56:22.762Z,15.60
2022-08-31T21:58:50.072Z,15.60
2022-08-31T22:01:20.779Z,15.60
2022-08-31T22:03:54.222Z,15.60
2022-08-31T22:06:31.001Z,15.50
2022-08-31T22:09:02.012Z,15.50
2022-08-31T22:11:31.953Z,15.50
2022-08-31T22:14:00.022Z,15.50
2022-08-31T22:16:27.752Z,15.50
2022-08-31T22:19:01.283Z,15.50
2022-08-31T22:21:32.237Z,15.50
2022-08-31T22:24:04.016Z,15.50
2022-08-31T22:26:34.694Z,15.50
2022-08-31T22:29:01.456Z,15.50
2022-08-31T22:31:28.349Z,15.50
2022-08-31T22:33:55.395Z,15.40
2022-08-31T22:36:32.406Z,15.40
2022-08-31T22:39:05.647Z,15.50
2022-08-31T22:41:33.499Z,15.40
2022-08-31T22:44:00.557Z,15.30
2022-08-31T22:46:27.890Z,15.30
2022-08-31T22:48:54.661Z,15.30
2022-08-31T22:51:22.359Z,15.20
2022-08-31T22:53:51.552Z,15.20
2022-08-31T22:56:27.901Z,15.10
2022-08-31T22:58:57.439Z,15.20
2022-08-31T23:01:27.393Z,15.20
2022-08-31T23:03:56.060Z,15.30
2022-08-31T23:06:24.863Z,15.30
2022-08-31T23:08:53.369Z,15.20
2022-08-31T23:11:22.116Z,15.20
2022-08-31T23:13:57.240Z,15.20
2022-08-31T23:16:27.515Z,15.20
2022-08-31T23:18:57.666Z,15.20
2022-08-31T23:21:26.081Z,15.30
2022-08-31T23:23:53.665Z,15.30
2022-08-31T23:26:21.244Z,15.30
2022-08-31T23:28:47.959Z,15.30
2022-08-31T23:31:14.838Z,15.30
2022-08-31T23:33:47.107Z,15.30
2022-08-31T23:36:13.964Z,15.30
2022-08-31T23:38:42.740Z,15.30
2022-08-31T23:41:13.672Z,15.20
2022-08-31T23:43:40.631Z,15.20
2022-08-31T23:46:07.319Z,15.30
2022-08-31T23:48:34.005Z,15.30
2022-08-31T23:51:01.729Z,15.30
2022-08-31T23:53:28.409Z,15.30
2022-08-31T23:55:55.108Z,15.20
2022-08-31T23:58:25.794Z,15.20
